createdAt,value
2022-12-24T00:02:16.872Z,4.60
2022-12-24T00:05:18.653Z,4.67
2022-12-24T00:08:20.581Z,5.17
2022-12-24T00:11:22.399Z,4.87
2022-12-24T00:14:24.679Z,4.87
2022-12-24T00:17:26.387Z,5.23
2022-12-24T00:20:28.699Z,4.73
2022-12-24T00:23:30.397Z,5.10
2022-12-24T00:26:33.868Z,5.53
2022-12-24T00:29:35.597Z,5.50
2022-12-24T00:32:38.641Z,6.43
2022-12-24T00:35:41.052Z,5.10
2022-12-24T00:38:42.908Z,5.80
2022-12-24T00:41:44.863Z,5.30
2022-12-24T00:44:46.599Z,5.57
2022-12-24T00:47:48.451Z,5.63
2022-12-24T00:50:50.907Z,5.37
2022-12-24T00:53:53.101Z,4.97
2022-12-24T00:56:54.837Z,5.43
2022-12-24T00:59:56.542Z,6.57
2022-12-24T01:02:58.530Z,4.93
2022-12-24T01:06:00.402Z,4.37
2022-12-24T01:09:02.069Z,4.57
2022-12-24T01:12:03.958Z,4.70
2022-12-24T01:15:06.411Z,4.80
2022-12-24T01:18:08.063Z,5.40
2022-12-24T01:21:09.840Z,4.60
2022-12-24T01:24:15.920Z,3.80
2022-12-24T01:27:17.740Z,4.50
2022-12-24T01:30:19.569Z,4.73
2022-12-24T01:33:21.314Z,4.27
2022-12-24T01:36:23.047Z,3.80
2022-12-24T01:39:24.746Z,4.67
2022-12-24T01:42:44.938Z,4.10
2022-12-24T01:46:21.171Z,4.33
2022-12-24T01:49:22.964Z,4.87
2022-12-24T01:52:29.795Z,4.50
2022-12-24T01:55:31.591Z,4.67
2022-12-24T01:58:35.440Z,4.83
2022-12-24T02:01:41.548Z,3.53
2022-12-24T02:05:14.145Z,4.00
2022-12-24T02:08:17.103Z,4.67
2022-12-24T02:11:22.187Z,3.97
2022-12-24T02:14:29.198Z,4.00
2022-12-24T02:18:04.833Z,4.10
2022-12-24T02:21:26.589Z,4.23
2022-12-24T02:24:31.050Z,4.00
2022-12-24T02:27:57.535Z,4.00
2022-12-24T02:31:20.733Z,4.43
2022-12-24T02:34:25.391Z,3.70
2022-12-24T02:37:53.029Z,4.43
2022-12-24T02:41:02.597Z,4.97
2022-12-24T02:44:04.608Z,4.27
2022-12-24T02:47:08.596Z,4.63
2022-12-24T02:50:14.813Z,4.20
2022-12-24T02:53:16.559Z,4.27
2022-12-24T02:56:56.641Z,4.33
2022-12-24T03:00:32.096Z,3.67
2022-12-24T03:03:37.649Z,3.97
2022-12-24T03:07:00.153Z,3.77
2022-12-24T03:10:23.715Z,3.40
2022-12-24T03:13:27.442Z,5.47
2022-12-24T03:16:29.306Z,4.67
2022-12-24T03:19:32.757Z,4.63
2022-12-24T03:22:34.939Z,3.87
2022-12-24T03:25:40.274Z,3.53
2022-12-24T03:28:43.285Z,4.60
2022-12-24T03:31:48.474Z,3.90
2022-12-24T03:34:50.251Z,4.07
2022-12-24T03:37:52.276Z,3.80
2022-12-24T03:40:53.976Z,6.10
2022-12-24T03:43:55.705Z,6.97
2022-12-24T03:46:57.426Z,4.07
2022-12-24T03:49:59.137Z,4.83
2022-12-24T03:53:00.837Z,4.20
2022-12-24T03:56:02.535Z,4.33
2022-12-24T03:59:04.308Z,4.47
2022-12-24T04:02:06.124Z,3.97
2022-12-24T04:05:13.093Z,4.07
2022-12-24T04:08:14.859Z,5.13
2022-12-24T04:11:17.213Z,4.13
2022-12-24T04:14:18.909Z,4.23
2022-12-24T04:17:20.602Z,5.17
2022-12-24T04:20:22.315Z,4.63
2022-12-24T04:23:24.344Z,4.20
2022-12-24T04:26:26.010Z,5.10
2022-12-24T04:29:27.693Z,3.67
2022-12-24T04:32:29.363Z,3.23
2022-12-24T04:35:31.065Z,4.47
2022-12-24T04:38:33.655Z,3.63
2022-12-24T04:41:35.374Z,5.10
2022-12-24T04:44:37.042Z,4.03
2022-12-24T04:47:38.791Z,5.80
2022-12-24T04:50:40.452Z,4.10
2022-12-24T04:53:42.521Z,5.43
2022-12-24T04:56:44.181Z,4.27
2022-12-24T04:59:45.853Z,5.20
2022-12-24T05:02:47.643Z,4.70
2022-12-24T05:05:49.469Z,4.53
2022-12-24T05:08:55.659Z,4.70
2022-12-24T05:11:57.389Z,4.67
2022-12-24T05:14:59.106Z,5.23
2022-12-24T05:18:00.836Z,4.60
2022-12-24T05:21:02.713Z,4.67
2022-12-24T05:24:23.348Z,3.73
2022-12-24T05:27:25.049Z,3.77
2022-12-24T05:30:26.824Z,4.60
2022-12-24T05:33:28.600Z,5.50
2022-12-24T05:36:30.634Z,3.90
2022-12-24T05:39:32.422Z,3.13
2022-12-24T05:42:34.087Z,3.17
2022-12-24T05:45:35.760Z,3.43
2022-12-24T05:48:37.404Z,3.03
2022-12-24T05:51:40.401Z,3.00
2022-12-24T05:54:42.258Z,4.03
2022-12-24T05:57:44.002Z,3.70
2022-12-24T06:00:45.702Z,3.43
2022-12-24T06:03:49.343Z,3.20
2022-12-24T06:06:51.047Z,3.73
2022-12-24T06:09:52.714Z,4.37
2022-12-24T06:12:55.662Z,3.60
2022-12-24T06:15:59.044Z,4.67
2022-12-24T06:19:00.753Z,4.33
2022-12-24T06:22:02.493Z,4.20
2022-12-24T06:25:04.654Z,4.20
2022-12-24T06:28:06.373Z,3.80
2022-12-24T06:31:15.301Z,4.07
2022-12-24T06:34:17.006Z,3.80
2022-12-24T06:37:18.721Z,3.57
2022-12-24T06:40:20.432Z,3.90
2022-12-24T06:43:22.165Z,3.57
2022-12-24T06:46:24.130Z,4.23
2022-12-24T06:49:25.874Z,3.33
2022-12-24T06:52:27.557Z,3.53
2022-12-24T06:55:29.328Z,4.30
2022-12-24T06:58:31.743Z,4.27
2022-12-24T07:01:33.620Z,4.63
2022-12-24T07:04:35.485Z,3.60
2022-12-24T07:07:38.311Z,3.67
2022-12-24T07:10:40.001Z,4.63
2022-12-24T07:13:41.681Z,4.67
2022-12-24T07:16:43.504Z,3.43
2022-12-24T07:19:45.286Z,3.97
2022-12-24T07:22:46.974Z,4.47
2022-12-24T07:25:48.676Z,3.97
2022-12-24T07:28:50.363Z,3.00
2022-12-24T07:31:52.120Z,3.90
2022-12-24T07:34:53.821Z,4.33
2022-12-24T07:37:55.488Z,3.70
2022-12-24T07:40:58.049Z,4.37
2022-12-24T07:43:59.709Z,4.67
2022-12-24T07:47:01.738Z,3.57
2022-12-24T07:50:05.665Z,4.00
2022-12-24T07:53:07.595Z,4.10
2022-12-24T07:56:12.928Z,4.57
2022-12-24T07:59:15.046Z,4.43
2022-12-24T08:02:18.710Z,4.37
2022-12-24T08:05:20.684Z,3.67
2022-12-24T08:08:22.463Z,4.37
2022-12-24T08:11:24.179Z,4.20
2022-12-24T08:14:25.845Z,3.53
2022-12-24T08:17:32.171Z,4.30
2022-12-24T08:20:34.208Z,3.23
2022-12-24T08:23:36.744Z,4.40
2022-12-24T08:26:38.454Z,4.07
2022-12-24T08:29:40.136Z,3.77
2022-12-24T08:32:41.858Z,4.03
2022-12-24T08:35:54.902Z,4.07
2022-12-24T08:38:56.860Z,3.30
2022-12-24T08:41:58.743Z,4.30
2022-12-24T08:45:00.475Z,3.77
2022-12-24T08:48:02.178Z,3.67
2022-12-24T08:51:11.604Z,4.50
2022-12-24T08:54:13.250Z,4.00
2022-12-24T08:57:15.016Z,4.47
2022-12-24T09:00:17.442Z,4.73
2022-12-24T09:03:26.714Z,3.60
2022-12-24T09:06:29.358Z,3.57
2022-12-24T09:09:37.555Z,3.93
2022-12-24T09:12:39.718Z,3.57
2022-12-24T09:15:41.404Z,3.73
2022-12-24T09:18:43.182Z,3.43
2022-12-24T09:21:44.853Z,4.70
2022-12-24T09:24:46.588Z,4.20
2022-12-24T09:27:48.287Z,3.60
2022-12-24T09:30:58.082Z,3.63
2022-12-24T09:33:59.791Z,4.50
2022-12-24T09:37:03.027Z,4.27
2022-12-24T09:40:05.155Z,4.33
2022-12-24T09:43:16.904Z,4.37
2022-12-24T09:46:39.674Z,3.80
2022-12-24T09:49:46.273Z,3.80
2022-12-24T09:52:50.047Z,4.80
2022-12-24T09:55:56.624Z,4.27
2022-12-24T09:59:04.236Z,4.17
2022-12-24T10:02:11.411Z,4.07
2022-12-24T10:05:15.610Z,4.00
2022-12-24T10:08:38.175Z,4.73
2022-12-24T10:12:24.574Z,3.53
2022-12-24T10:15:49.392Z,4.53
2022-12-24T10:19:10.451Z,3.87
2022-12-24T10:22:36.732Z,3.43
2022-12-24T10:25:50.190Z,4.50
2022-12-24T10:29:02.656Z,4.40
2022-12-24T10:32:17.305Z,4.00
2022-12-24T10:35:34.586Z,3.60
2022-12-24T10:38:36.488Z,3.43
2022-12-24T10:41:38.351Z,4.20
2022-12-24T10:44:40.218Z,4.03
2022-12-24T10:47:44.070Z,4.03
2022-12-24T10:51:03.159Z,3.70
2022-12-24T10:54:24.468Z,4.57
2022-12-24T10:57:28.211Z,3.37
2022-12-24T11:00:35.825Z,3.83
2022-12-24T11:03:38.379Z,3.47
2022-12-24T11:06:53.542Z,4.20
2022-12-24T11:10:04.018Z,4.27
2022-12-24T11:13:36.303Z,4.47
2022-12-24T11:16:35.608Z,3.33
2022-12-24T11:19:40.016Z,4.40
2022-12-24T11:22:42.202Z,3.70
2022-12-24T11:25:49.756Z,4.83
2022-12-24T11:29:19.764Z,3.03
2022-12-24T11:32:22.826Z,4.33
2022-12-24T11:35:26.463Z,3.60
2022-12-24T11:38:29.618Z,3.63
2022-12-24T11:41:37.479Z,3.97
2022-12-24T11:44:48.704Z,3.40
2022-12-24T11:47:51.410Z,4.03
2022-12-24T11:50:58.488Z,3.30
2022-12-24T11:54:27.630Z,4.13
2022-12-24T11:57:40.810Z,3.83
2022-12-24T12:00:44.245Z,7.50
2022-12-24T12:04:06.093Z,3.50
2022-12-24T12:07:16.238Z,4.00
2022-12-24T12:10:24.944Z,3.83
2022-12-24T12:13:37.200Z,4.43
2022-12-24T12:17:00.730Z,3.80
2022-12-24T12:20:17.965Z,3.47
2022-12-24T12:23:31.471Z,3.37
2022-12-24T12:26:33.912Z,4.73
2022-12-24T12:29:45.458Z,4.53
2022-12-24T12:33:25.303Z,3.97
2022-12-24T12:36:54.199Z,4.73
2022-12-24T12:39:55.926Z,5.37
2022-12-24T12:43:14.777Z,4.80
2022-12-24T12:46:38.063Z,4.53
2022-12-24T12:50:23.912Z,4.37
2022-12-24T12:53:38.693Z,3.60
2022-12-24T12:56:46.761Z,4.13
2022-12-24T13:00:06.951Z,3.73
2022-12-24T13:03:38.181Z,3.63
2022-12-24T13:07:03.537Z,4.73
2022-12-24T13:10:39.152Z,5.17
2022-12-24T13:14:04.018Z,4.10
2022-12-24T13:17:27.626Z,4.23
2022-12-24T13:20:31.290Z,3.70
2022-12-24T13:23:33.321Z,5.23
2022-12-24T13:26:35.149Z,4.63
2022-12-24T13:29:41.195Z,3.87
2022-12-24T13:32:54.193Z,3.43
2022-12-24T13:36:01.455Z,4.03
2022-12-24T13:39:03.308Z,4.27
2022-12-24T13:42:06.345Z,3.80
2022-12-24T13:45:30.076Z,3.50
2022-12-24T13:48:33.729Z,3.90
2022-12-24T13:51:35.454Z,3.47
2022-12-24T13:54:43.206Z,3.77
2022-12-24T13:58:05.445Z,4.23
2022-12-24T14:01:13.525Z,4.40
2022-12-24T14:04:28.996Z,3.53
2022-12-24T14:07:31.166Z,3.73
2022-12-24T14:10:43.767Z,3.83
2022-12-24T14:13:48.528Z,4.07
2022-12-24T14:16:54.498Z,4.00
2022-12-24T14:20:02.259Z,4.80
2022-12-24T14:23:06.556Z,3.73
2022-12-24T14:26:15.004Z,4.40
2022-12-24T14:29:27.577Z,4.80
2022-12-24T14:32:35.954Z,4.30
2022-12-24T14:35:39.783Z,3.70
2022-12-24T14:38:45.134Z,3.63
2022-12-24T14:41:59.463Z,4.30
2022-12-24T14:45:26.733Z,4.60
2022-12-24T14:49:02.166Z,3.17
2022-12-24T14:52:54.164Z,4.03
2022-12-24T14:55:45.946Z,4.70
2022-12-24T14:58:48.304Z,5.17
2022-12-24T15:01:50.488Z,4.57
2022-12-24T15:05:19.540Z,4.60
2022-12-24T15:08:32.210Z,3.97
2022-12-24T15:11:33.994Z,4.60
2022-12-24T15:14:43.652Z,3.97
2022-12-24T15:17:46.223Z,3.80
2022-12-24T15:20:52.180Z,5.03
2022-12-24T15:23:53.931Z,5.17
2022-12-24T15:26:56.326Z,4.97
2022-12-24T15:29:59.325Z,4.67
2022-12-24T15:33:01.199Z,4.90
2022-12-24T15:36:04.118Z,4.77
2022-12-24T15:39:13.783Z,4.73
2022-12-24T15:42:19.304Z,4.87
2022-12-24T15:45:28.678Z,5.33
2022-12-24T15:48:32.643Z,7.10
2022-12-24T15:51:40.183Z,7.93
2022-12-24T15:54:50.738Z,5.67
2022-12-24T15:57:56.057Z,5.13
2022-12-24T16:01:25.094Z,5.07
2022-12-24T16:04:28.440Z,6.77
2022-12-24T16:07:50.122Z,6.93
2022-12-24T16:11:06.746Z,6.87
2022-12-24T16:14:17.129Z,6.90
2022-12-24T16:17:31.785Z,6.50
2022-12-24T16:20:33.590Z,6.90
2022-12-24T16:23:49.880Z,7.70
2022-12-24T16:26:52.452Z,8.07
2022-12-24T16:29:54.401Z,7.50
2022-12-24T16:32:56.081Z,9.27
2022-12-24T16:35:58.138Z,13.47
2022-12-24T16:39:18.763Z,8.00
2022-12-24T16:42:39.270Z,12.00
2022-12-24T16:45:41.235Z,10.87
2022-12-24T16:48:47.152Z,11.03
2022-12-24T16:51:48.917Z,11.30
2022-12-24T16:54:50.796Z,10.40
2022-12-24T16:57:52.600Z,14.70
2022-12-24T17:00:54.303Z,8.90
2022-12-24T17:03:56.032Z,6.93
2022-12-24T17:06:57.945Z,6.33
2022-12-24T17:09:59.635Z,7.10
2022-12-24T17:13:01.461Z,7.90
2022-12-24T17:16:03.382Z,10.17
2022-12-24T17:19:05.499Z,7.23
2022-12-24T17:22:07.190Z,9.90
2022-12-24T17:25:12.664Z,9.87
2022-12-24T17:28:14.387Z,9.57
2022-12-24T17:31:16.874Z,15.13
2022-12-24T17:34:18.752Z,17.40
2022-12-24T17:37:20.489Z,17.60
2022-12-24T17:40:22.198Z,17.10
2022-12-24T17:43:23.902Z,16.97
2022-12-24T17:46:25.687Z,19.30
2022-12-24T17:49:27.838Z,16.87
2022-12-24T17:52:29.539Z,15.53
2022-12-24T17:55:31.212Z,16.07
2022-12-24T17:58:33.529Z,19.93
2022-12-24T18:01:35.338Z,18.23
2022-12-24T18:04:37.123Z,15.40
2022-12-24T18:07:38.783Z,15.63
2022-12-24T18:10:40.697Z,15.63
2022-12-24T18:13:42.931Z,14.40
2022-12-24T18:16:47.577Z,12.00
2022-12-24T18:19:49.335Z,20.57
2022-12-24T18:22:51.069Z,24.17
2022-12-24T18:25:52.713Z,24.50
2022-12-24T18:28:56.309Z,25.77
2022-12-24T18:31:58.019Z,20.47
2022-12-24T18:34:59.722Z,16.97
2022-12-24T18:38:01.401Z,16.77
2022-12-24T18:41:11.602Z,15.43
2022-12-24T18:44:13.369Z,15.33
2022-12-24T18:47:15.134Z,19.23
2022-12-24T18:50:16.929Z,21.07
2022-12-24T18:53:18.588Z,21.37
2022-12-24T18:56:22.995Z,21.17
2022-12-24T18:59:24.732Z,18.87
2022-12-24T19:02:26.495Z,16.60
2022-12-24T19:05:28.270Z,15.53
2022-12-24T19:08:56.398Z,17.33
2022-12-24T19:11:51.640Z,16.77
2022-12-24T19:14:53.314Z,15.90
2022-12-24T19:17:55.355Z,17.07
2022-12-24T19:20:57.495Z,15.50
2022-12-24T19:23:59.265Z,13.80
2022-12-24T19:27:00.926Z,12.73
2022-12-24T19:30:03.433Z,12.73
2022-12-24T19:33:05.726Z,13.93
2022-12-24T19:36:09.523Z,13.77
2022-12-24T19:39:11.281Z,14.57
2022-12-24T19:42:12.997Z,15.00
2022-12-24T19:45:14.711Z,11.53
2022-12-24T19:48:16.377Z,12.23
2022-12-24T19:51:19.094Z,11.73
2022-12-24T19:54:20.855Z,13.53
2022-12-24T19:57:22.643Z,11.27
2022-12-24T20:00:24.459Z,12.63
2022-12-24T20:03:26.121Z,13.77
2022-12-24T20:06:31.021Z,12.37
2022-12-24T20:09:33.826Z,13.03
2022-12-24T20:12:35.507Z,14.10
2022-12-24T20:15:44.127Z,12.70
2022-12-24T20:18:51.746Z,10.87
2022-12-24T20:21:53.420Z,12.40
2022-12-24T20:24:55.087Z,12.43
2022-12-24T20:27:57.555Z,11.90
2022-12-24T20:30:59.323Z,13.03
2022-12-24T20:34:02.798Z,11.93
2022-12-24T20:37:04.546Z,8.60
2022-12-24T20:40:06.921Z,7.73
2022-12-24T20:43:08.889Z,7.93
2022-12-24T20:46:11.102Z,6.83
2022-12-24T20:49:12.860Z,5.60
2022-12-24T20:52:14.543Z,5.97
2022-12-24T20:55:17.397Z,5.67
2022-12-24T20:58:20.092Z,7.37
2022-12-24T21:01:25.319Z,7.63
2022-12-24T21:04:27.067Z,9.87
2022-12-24T21:07:28.897Z,7.93
2022-12-24T21:10:34.204Z,13.30
2022-12-24T21:13:36.297Z,15.23
2022-12-24T21:16:39.671Z,11.90
2022-12-24T21:19:41.413Z,15.67
2022-12-24T21:22:43.469Z,12.93
2022-12-24T21:25:45.173Z,12.03
2022-12-24T21:28:47.241Z,11.57
2022-12-24T21:31:48.991Z,13.97
2022-12-24T21:34:50.667Z,7.73
2022-12-24T21:37:52.374Z,8.37
2022-12-24T21:41:05.749Z,7.80
2022-12-24T21:44:07.460Z,6.67
2022-12-24T21:47:09.883Z,6.47
2022-12-24T21:50:32.415Z,7.23
2022-12-24T21:54:09.479Z,8.37
2022-12-24T21:57:29.899Z,9.77
2022-12-24T22:00:31.638Z,7.53
2022-12-24T22:03:33.362Z,8.47
2022-12-24T22:06:53.583Z,10.53
2022-12-24T22:10:14.153Z,9.37
2022-12-24T22:13:15.897Z,10.67
2022-12-24T22:16:18.248Z,11.93
2022-12-24T22:19:19.922Z,9.13
2022-12-24T22:22:22.247Z,9.13
2022-12-24T22:25:23.927Z,9.77
2022-12-24T22:28:25.608Z,8.80
2022-12-24T22:31:27.463Z,8.33
2022-12-24T22:34:29.313Z,8.30
2022-12-24T22:37:31.001Z,9.87
2022-12-24T22:40:32.746Z,8.40
2022-12-24T22:43:34.698Z,8.63
2022-12-24T22:46:36.442Z,7.20
2022-12-24T22:49:38.176Z,10.13
2022-12-24T22:52:39.874Z,9.17
2022-12-24T22:55:41.547Z,9.40
2022-12-24T22:58:43.810Z,8.33
2022-12-24T23:01:47.057Z,9.03
2022-12-24T23:04:48.936Z,9.77
2022-12-24T23:07:50.730Z,11.20
2022-12-24T23:10:54.330Z,9.77
2022-12-24T23:14:14.763Z,9.50
2022-12-24T23:17:16.486Z,9.10
2022-12-24T23:20:18.193Z,8.43
2022-12-24T23:23:19.925Z,8.60
2022-12-24T23:26:22.101Z,8.83
2022-12-24T23:29:24.141Z,7.37
2022-12-24T23:32:25.834Z,7.07
2022-12-24T23:35:27.535Z,6.80
2022-12-24T23:38:29.682Z,7.57
2022-12-24T23:41:31.368Z,8.60
2022-12-24T23:44:33.088Z,7.30
2022-12-24T23:47:34.815Z,6.77
2022-12-24T23:50:37.688Z,8.97
2022-12-24T23:53:39.772Z,8.77
2022-12-24T23:56:41.489Z,8.57
2022-12-24T23:59:43.238Z,12.07
